Terminal Aerodrome Forecast
Issued by NWS

Home | Current Version | Previous Version | Text Only | Print | Product List | Glossary On
Versions: 1 2 3 4 5 6 7 8 9 10 11 12 13 14 15 16 17
000
FTUS44 KTSA 300900 AAA
TAFFYV
TAF AMD
KFYV 300922Z 3009/3106 30006KT P6SM OVC003
     FM301100 35006KT P6SM BKN025
      TEMPO 3012/3016 3SM BR BKN015
     FM310000 33007KT P6SM OVC025=

USA.gov is the U.S. government's official web portal to all federal, state and local government web resources and services.